Time;durP1;ratioP1;P1;durP2;ratioP2;P2;SDS_P1;SDS_P2;PMS_P1;PMS_P2;Temp;Humidity;BMP_temperature;BMP_pressure;BME280_temperature;BME280_humidity;BME280_pressure;Samples;Min_cycle;Max_cycle;Signal;HPM_P1;HPM_P2
2021/03/01 00:01:11;;;;;;;21.30;13.38;;;5.90;99.90;;;5.62;78.23;102305.75;4103334;29;20027;-75
2021/03/01 00:03:12;;;;;;;22.55;14.52;;;5.90;99.90;;;5.50;78.21;102289.81;4120465;28;20086;-75
2021/03/01 00:05:14;;;;;;;19.50;14.00;;;5.90;99.90;;;5.54;78.58;102308.81;4120840;28;20042;-75
2021/03/01 00:07:15;;;;;;;18.88;12.95;;;5.90;99.90;;;5.58;78.54;102311.16;4120857;28;20112;-75
2021/03/01 00:09:16;;;;;;;22.50;13.80;;;5.80;99.90;;;5.72;78.40;102304.31;4120445;28;20030;-75
2021/03/01 00:11:17;;;;;;;18.77;13.18;;;5.90;99.90;;;5.80;77.70;102304.72;4119239;28;20033;-75
2021/03/01 00:13:19;;;;;;;18.23;13.13;;;6.00;99.90;;;5.65;77.23;102293.34;4103322;29;20027;-75
2021/03/01 00:15:23;;;;;;;19.23;13.55;;;6.00;99.90;;;5.81;77.62;102309.03;4103513;28;20388;-75
2021/03/01 00:17:24;;;;;;;23.67;14.43;;;5.90;99.90;;;5.34;77.27;102227.97;4120324;28;20034;-75
2021/03/01 00:19:25;;;;;;;23.75;14.68;;;6.10;99.90;;;5.65;78.44;102298.56;4120310;28;20035;-75
2021/03/01 00:21:26;;;;;;;20.52;14.38;;;6.00;99.90;;;5.50;78.05;102287.19;4120462;28;20046;-75
2021/03/01 00:23:27;;;;;;;22.52;14.10;;;5.90;99.90;;;5.61;78.21;102304.06;4120610;28;20058;-75
2021/03/01 00:25:28;;;;;;;18.30;12.45;;;5.90;99.90;;;5.65;78.09;102297.72;4120379;28;20491;-75
2021/03/01 00:27:29;;;;;;;23.45;14.07;;;5.90;99.90;;;5.62;78.52;102303.97;4120117;28;20038;-75
2021/03/01 00:29:30;;;;;;;20.45;12.73;;;5.80;99.90;;;5.65;78.12;102298.56;4120318;28;20039;-75
2021/03/01 00:31:30;;;;;;;15.40;12.23;;;5.90;99.90;;;5.70;77.49;102300.94;4119778;28;20065;-75
2021/03/01 00:33:31;;;;;;;21.20;13.50;;;5.90;99.90;;;5.49;78.28;102269.81;4119985;28;20142;-75
2021/03/01 00:35:33;;;;;;;22.77;14.35;;;5.90;99.90;;;5.62;78.35;102293.50;4120094;28;20109;-75
2021/03/01 00:37:34;;;;;;;19.02;12.95;;;5.90;99.90;;;5.57;78.43;102293.78;4120004;28;20118;-75
2021/03/01 00:39:35;;;;;;;18.95;12.98;;;5.90;99.90;;;5.51;78.71;102293.28;4120157;28;20037;-75
2021/03/01 00:41:36;;;;;;;22.73;13.65;;;5.90;99.90;;;5.44;79.22;102287.53;4120088;28;20027;-75
2021/03/01 00:43:37;;;;;;;22.17;14.13;;;5.80;99.90;;;5.38;79.19;102280.00;4119473;28;20034;-75
2021/03/01 00:45:38;;;;;;;20.25;13.10;;;5.80;99.90;;;5.46;78.71;102287.47;4120132;28;20117;-75
2021/03/01 00:47:39;;;;;;;16.30;12.30;;;5.80;99.90;;;5.45;78.30;102293.59;4102601;29;20035;-75
2021/03/01 00:49:40;;;;;;;18.48;13.38;;;5.80;99.90;;;5.30;79.41;102295.31;4119991;28;20035;-75
2021/03/01 00:51:41;;;;;;;19.33;13.52;;;5.70;99.90;;;5.24;79.75;102285.19;4119921;28;20030;-75
2021/03/01 00:53:42;;;;;;;21.40;13.75;;;5.70;99.90;;;5.40;79.13;102290.41;4120017;28;20040;-75
2021/03/01 00:55:42;;;;;;;20.02;13.40;;;5.60;99.90;;;5.38;78.92;102293.09;4120205;28;20058;-75
2021/03/01 00:57:43;;;;;;;22.42;13.98;;;5.70;99.90;;;5.26;79.92;102283.31;4119899;28;20027;-75
2021/03/01 00:59:44;;;;;;;24.05;14.93;;;5.60;99.90;;;4.85;79.19;102214.97;4119807;28;20514;-75
2021/03/01 01:01:45;;;;;;;21.67;14.30;;;5.60;99.90;;;5.31;79.51;102288.31;4119532;28;20038;-75
2021/03/01 01:03:46;;;;;;;21.40;14.38;;;5.60;99.90;;;5.40;79.32;102286.03;4119952;28;20062;-75
2021/03/01 01:05:47;;;;;;;19.52;13.68;;;5.70;99.90;;;5.45;79.00;102283.16;4119849;28;20039;-75
2021/03/01 01:07:48;;;;;;;25.23;15.10;;;5.70;99.90;;;5.43;79.00;102277.16;4119740;28;20030;-75
2021/03/01 01:09:49;;;;;;;20.40;13.93;;;5.70;99.90;;;5.27;79.89;102277.16;4119754;28;20406;-75
2021/03/01 01:11:50;;;;;;;20.92;14.77;;;5.70;99.90;;;5.20;80.28;102282.78;4119833;28;20015;-75
2021/03/01 01:13:51;;;;;;;18.30;14.27;;;5.60;99.90;;;5.17;79.98;102278.59;4119774;28;20039;-75
2021/03/01 01:15:53;;;;;;;23.02;14.88;;;5.60;99.90;;;5.18;80.18;102264.59;4106337;28;20028;-75
2021/03/01 01:17:53;;;;;;;18.65;13.10;;;5.60;99.90;;;5.15;79.75;102269.13;4090070;29;20031;-75
2021/03/01 01:19:54;;;;;;;19.52;13.20;;;5.50;99.90;;;5.07;80.63;102276.56;4119718;28;20143;-75
2021/03/01 01:21:55;;;;;;;24.90;15.90;;;5.40;99.90;;;5.07;80.85;102269.56;4119687;28;20030;-75
2021/03/01 01:23:56;;;;;;;19.35;13.77;;;5.40;99.90;;;5.19;80.11;102273.28;4119766;28;20398;-75
2021/03/01 01:25:57;;;;;;;19.77;12.85;;;5.40;99.90;;;5.06;80.94;102267.88;4119627;28;20082;-75
2021/03/01 01:27:58;;;;;;;21.63;14.35;;;5.40;99.90;;;5.17;80.03;102264.69;4119580;28;20494;-75
2021/03/01 01:29:59;;;;;;;21.52;13.90;;;5.90;99.90;;;5.20;79.87;102262.72;4119253;28;20181;-75
2021/03/01 01:32:00;;;;;;;24.25;15.73;;;5.50;99.90;;;5.13;80.27;102256.16;4119310;28;20026;-75
2021/03/01 01:34:01;;;;;;;22.00;14.52;;;5.30;99.90;;;4.76;80.30;102206.78;4119386;28;20062;-75
2021/03/01 01:36:02;;;;;;;23.50;14.27;;;5.50;99.90;;;4.92;81.49;102257.31;4119630;28;20021;-75
2021/03/01 01:38:04;;;;;;;20.10;14.68;;;5.50;99.90;;;5.12;80.88;102253.59;4119366;28;20039;-75
2021/03/01 01:40:11;;;;;;;20.20;14.60;;;5.40;99.90;;;4.92;80.88;102257.31;4119513;28;20034;-75
2021/03/01 01:42:12;;;;;;;20.30;13.43;;;5.40;99.90;;;4.84;81.62;102230.72;4119445;28;20050;-75
2021/03/01 01:44:13;;;;;;;21.30;13.68;;;5.40;99.90;;;5.10;81.18;102252.84;4119472;28;20031;-75
2021/03/01 01:46:15;;;;;;;19.80;13.90;;;5.50;99.90;;;5.02;81.54;102237.56;4119489;28;20166;-75
2021/03/01 01:48:16;;;;;;;21.20;14.45;;;5.40;99.90;;;5.12;80.52;102245.75;4102219;29;20153;-75
2021/03/01 01:50:20;;;;;;;26.20;14.07;;;5.50;99.90;;;5.00;81.26;102229.81;4119463;28;20406;-75
2021/03/01 01:52:21;;;;;;;22.77;15.23;;;5.50;99.90;;;5.22;80.63;102257.41;4102265;28;20043;-76
2021/03/01 01:54:22;;;;;;;21.20;13.98;;;5.50;99.90;;;4.96;80.29;102248.34;4119316;28;20035;-75
2021/03/01 01:56:24;;;;;;;22.45;14.68;;;5.40;99.90;;;4.91;80.77;102225.09;4119860;28;20115;-75
2021/03/01 01:58:25;;;;;;;23.92;15.77;;;5.40;99.90;;;4.95;80.54;102215.31;4122892;28;20038;-75
2021/03/01 02:00:45;;;;;;;23.63;15.38;;;5.40;99.90;;;4.86;81.56;102226.28;4105182;29;20039;-75
2021/03/01 02:02:54;;;;;;;20.52;15.25;;;5.40;99.90;;;4.95;80.93;102244.94;4122649;28;20122;-75
2021/03/01 02:04:58;;;;;;;23.33;15.85;;;5.30;99.90;;;5.00;81.20;102242.06;4105979;28;20466;-75
2021/03/01 02:07:29;;;;;;;23.08;14.70;;;5.30;99.90;;;5.01;80.69;102246.38;4105721;28;20027;-75
2021/03/01 02:10:12;;;;;;;24.70;15.50;;;5.40;99.90;;;4.97;81.13;102248.28;4122360;28;20039;-75
2021/03/01 02:12:41;;;;;;;21.83;14.75;;;5.30;99.90;;;4.92;81.08;102241.63;4122674;28;20113;-75
2021/03/01 02:15:05;;;;;;;24.52;14.90;;;5.30;99.90;;;4.83;81.67;102240.38;4118525;28;20063;-75
2021/03/01 02:17:06;;;;;;;22.00;15.00;;;5.30;99.90;;;4.94;81.10;102239.78;4069282;28;20042;-75
2021/03/01 02:19:08;;;;;;;24.13;14.48;;;5.30;99.90;;;4.84;82.18;102243.78;4122380;28;20038;-75
2021/03/01 02:21:11;;;;;;;23.42;15.05;;;5.30;99.90;;;4.87;81.74;102241.00;4102028;29;20028;-75
2021/03/01 02:23:15;;;;;;;22.25;15.57;;;5.30;99.90;;;4.66;81.97;102229.13;4112894;28;20027;-75
2021/03/01 02:25:18;;;;;;;27.83;15.50;;;5.20;99.90;;;4.52;82.69;102229.84;4105136;28;20035;-75
2021/03/01 02:27:28;;;;;;;18.52;12.07;;;5.10;99.90;;;4.70;82.29;102238.47;4105053;29;20494;-75
2021/03/01 02:29:32;;;;;;;24.13;16.00;;;5.00;99.90;;;4.59;82.54;102219.91;4105328;28;20462;-75
2021/03/01 02:31:40;;;;;;;22.90;15.07;;;5.00;99.90;;;4.59;82.51;102241.66;4121956;28;20130;-75
2021/03/01 02:33:52;;;;;;;26.20;16.10;;;5.00;99.90;;;4.73;82.23;102236.53;4105259;28;20031;-75
2021/03/01 02:36:24;;;;;;;23.13;15.10;;;5.00;99.90;;;4.67;82.47;102230.78;4105288;28;20023;-75
2021/03/01 02:38:30;;;;;;;24.08;16.30;;;5.00;99.90;;;4.58;82.11;102226.91;4108616;28;20074;-75
2021/03/01 02:40:32;;;;;;;24.42;16.02;;;4.90;99.90;;;4.69;82.27;102231.56;4104733;28;20027;-75
2021/03/01 02:42:37;;;;;;;23.40;15.30;;;4.90;99.90;;;4.58;82.77;102226.91;4104826;28;20102;-75
2021/03/01 02:44:39;;;;;;;22.10;15.15;;;4.90;99.90;;;4.54;81.60;102216.72;4105124;28;20434;-75
2021/03/01 02:46:41;;;;;;;22.55;16.65;;;4.90;99.90;;;4.71;81.89;102229.72;4104769;28;20091;-75
2021/03/01 02:48:43;;;;;;;22.65;15.38;;;4.90;99.90;;;4.61;81.74;102225.88;4121797;28;20062;-75
2021/03/01 02:50:48;;;;;;;26.30;17.05;;;4.90;99.90;;;4.52;82.13;102221.16;4104812;29;20027;-75
2021/03/01 02:52:51;;;;;;;25.33;16.02;;;4.90;99.90;;;4.57;82.21;102221.78;4104855;28;20094;-75
2021/03/01 02:54:54;;;;;;;24.80;16.30;;;4.90;99.90;;;4.42;82.02;102199.91;4104676;28;20058;-75
2021/03/01 02:56:57;;;;;;;22.73;14.95;;;4.90;99.90;;;4.56;82.16;102215.69;4104556;28;20111;-75
2021/03/01 02:58:59;;;;;;;21.73;16.17;;;4.90;99.90;;;4.37;83.17;102215.81;4121767;28;20121;-75
2021/03/01 03:01:02;;;;;;;21.05;15.35;;;4.70;99.90;;;4.39;83.24;102210.53;4121544;28;20513;-75
2021/03/01 03:03:07;;;;;;;25.73;16.05;;;4.80;99.90;;;4.42;82.59;102195.50;4104513;28;20039;-76
2021/03/01 03:05:09;;;;;;;;;;;4.70;99.90;;;4.56;83.03;102199.16;4105302;28;20034;-75
2021/03/01 03:07:09;;;;;;;26.33;15.50;;;4.80;99.90;;;4.55;83.25;102206.16;4121240;28;19910;-75
2021/03/01 03:09:12;;;;;;;25.00;14.90;;;4.90;99.90;;;4.51;82.70;102207.22;4104434;29;20046;-75
2021/03/01 03:11:16;;;;;;;21.25;15.02;;;5.40;99.90;;;4.56;82.95;102199.16;4104208;28;20027;-75
2021/03/01 03:13:20;;;;;;;22.17;14.38;;;4.90;99.90;;;4.43;83.51;102185.91;4121420;28;20118;-75
2021/03/01 03:15:23;;;;;;;22.05;14.80;;;4.80;99.90;;;4.26;83.70;102207.72;4095410;29;20066;-75
2021/03/01 03:17:24;;;;;;;23.33;14.93;;;4.70;99.90;;;4.45;83.37;102195.34;4116420;28;20130;-75
2021/03/01 03:19:26;;;;;;;22.95;15.52;;;4.70;99.90;;;4.48;83.32;102195.19;4089033;29;20470;-75
2021/03/01 03:21:27;;;;;;;23.48;15.32;;;4.80;99.90;;;4.50;83.38;102196.88;4094013;28;20075;-75
2021/03/01 03:23:28;;;;;;;22.80;14.63;;;4.80;99.90;;;4.40;84.26;102197.38;4121445;28;20054;-75
2021/03/01 03:25:29;;;;;;;27.83;16.25;;;4.90;99.90;;;4.36;84.14;102193.22;4121024;28;20030;-75
2021/03/01 03:27:30;;;;;;;24.75;16.25;;;4.90;99.90;;;4.23;84.62;102175.66;4121270;28;20058;-75
2021/03/01 03:29:32;;;;;;;24.00;15.63;;;4.80;99.90;;;4.40;83.66;102191.28;4104272;29;20528;-75
2021/03/01 03:31:33;;;;;;;24.08;15.80;;;4.80;99.90;;;4.44;83.82;102190.22;4121093;28;20019;-75
2021/03/01 03:33:34;;;;;;;22.40;15.30;;;4.80;99.90;;;4.35;84.30;102191.56;4121071;28;20061;-75
2021/03/01 03:35:35;;;;;;;24.38;16.42;;;4.70;99.90;;;4.30;84.35;102184.88;4121287;28;20080;-76
2021/03/01 03:37:54;;;;;;;26.13;16.55;;;4.80;99.90;;;4.40;84.12;102196.53;4104090;29;20034;-75
2021/03/01 03:39:57;;;;;;;23.63;15.25;;;4.80;99.90;;;4.35;84.49;102199.38;4104522;28;20035;-75
2021/03/01 03:41:59;;;;;;;24.45;17.42;;;4.70;99.90;;;4.46;84.01;102204.88;4104179;28;20028;-75
2021/03/01 03:44:02;;;;;;;25.45;16.42;;;4.70;99.90;;;4.39;84.19;102198.28;4104024;28;20031;-75
2021/03/01 03:46:04;;;;;;;24.15;15.68;;;4.80;99.90;;;4.37;84.05;102202.75;4103908;28;20031;-75
2021/03/01 03:48:06;;;;;;;26.65;15.48;;;4.80;99.90;;;4.35;84.68;102203.75;4120950;28;20034;-75
2021/03/01 03:50:07;;;;;;;28.08;15.80;;;4.70;99.90;;;4.23;84.11;102183.50;4120934;28;20031;-75
2021/03/01 03:52:12;;;;;;;23.60;16.20;;;4.60;99.90;;;4.34;83.49;102195.06;4103905;28;20086;-75
2021/03/01 03:54:20;;;;;;;23.65;15.45;;;4.70;99.90;;;4.16;84.42;102182.97;4104071;28;20023;-76
2021/03/01 03:56:26;;;;;;;23.20;16.55;;;4.60;99.90;;;4.20;84.20;102174.06;4103430;28;20023;-75
2021/03/01 03:58:42;;;;;;;25.27;16.00;;;4.60;99.90;;;4.29;84.08;102209.31;4121046;28;20035;-75
2021/03/01 04:00:44;;;;;;;23.33;16.00;;;4.60;99.90;;;4.34;84.11;102208.13;4103795;28;20034;-75
2021/03/01 04:02:46;;;;;;;24.08;15.52;;;4.60;99.90;;;4.32;84.39;102202.16;4120826;28;20023;-75
2021/03/01 04:04:48;;;;;;;21.45;14.88;;;4.60;99.90;;;4.15;85.02;102196.94;4120790;28;20029;-75
2021/03/01 04:06:51;;;;;;;27.63;16.23;;;4.60;99.90;;;4.29;85.40;102210.16;4103894;28;20034;-75
2021/03/01 04:08:53;;;;;;;23.15;16.05;;;4.60;99.90;;;4.15;84.74;102178.66;4103521;28;20082;-75
2021/03/01 04:10:56;;;;;;;23.48;16.52;;;4.70;99.90;;;4.31;84.67;102205.69;4103252;28;20031;-75
2021/03/01 04:12:59;;;;;;;23.08;15.50;;;4.60;99.90;;;4.35;84.22;102209.84;4103278;29;20410;-76
2021/03/01 04:15:04;;;;;;;21.38;14.82;;;4.60;99.90;;;4.26;83.66;102189.41;4097560;29;20428;-75
2021/03/01 04:17:11;;;;;;;21.73;15.73;;;4.60;99.90;;;4.27;84.50;102211.97;4097147;28;20051;-75
2021/03/01 04:19:15;;;;;;;23.90;15.38;;;4.70;99.90;;;4.24;84.14;102188.63;4119676;28;20046;-75
2021/03/01 04:21:18;;;;;;;29.33;17.30;;;4.60;99.90;;;4.11;84.54;102194.59;4103359;28;20150;-75
2021/03/01 04:23:21;;;;;;;24.47;15.10;;;4.60;99.90;;;4.08;84.32;102192.97;4120594;28;20518;-75
2021/03/01 04:25:23;;;;;;;24.83;15.75;;;4.50;99.90;;;3.95;84.22;102197.13;4103066;28;20035;-75
2021/03/01 04:27:24;;;;;;;21.60;15.43;;;4.50;99.90;;;4.06;84.50;102207.03;4103226;28;20404;-75
2021/03/01 04:29:27;;;;;;;23.63;14.90;;;4.40;99.90;;;4.04;84.95;102186.22;4103325;29;20031;-75
2021/03/01 04:31:29;;;;;;;22.05;15.32;;;4.40;99.90;;;4.10;84.51;102191.13;4103016;29;20031;-75
2021/03/01 04:33:33;;;;;;;22.80;15.85;;;4.50;99.90;;;4.29;84.08;102204.09;4102537;29;20023;-75
2021/03/01 04:35:35;;;;;;;24.17;15.70;;;4.60;99.90;;;4.31;83.87;102192.63;4087276;29;20064;-75
2021/03/01 04:37:36;;;;;;;25.50;15.93;;;4.60;99.90;;;4.19;85.22;102193.25;4071522;29;20084;-75
2021/03/01 04:39:37;;;;;;;23.67;15.65;;;4.60;99.90;;;4.01;84.87;102164.66;4088257;29;20050;-76
2021/03/01 04:41:42;;;;;;;24.15;15.77;;;4.70;99.90;;;4.14;84.54;102178.75;4088432;29;20031;-75
2021/03/01 04:43:44;;;;;;;25.10;14.73;;;4.60;99.90;;;4.11;85.42;102185.00;4087157;29;20515;-75
2021/03/01 04:45:45;;;;;;;25.90;14.98;;;4.50;99.90;;;4.14;85.19;102189.22;4087071;29;20516;-75
2021/03/01 04:47:49;;;;;;;20.80;15.57;;;4.50;99.90;;;4.28;85.03;102184.94;4087155;29;20063;-75
2021/03/01 04:49:51;;;;;;;21.42;15.77;;;4.60;99.90;;;4.07;85.60;102182.59;4087075;29;20086;-75
2021/03/01 04:51:53;;;;;;;22.95;15.68;;;4.50;99.90;;;4.15;85.90;102193.53;4087028;29;20094;-75
2021/03/01 04:53:56;;;;;;;24.35;16.42;;;4.60;99.90;;;4.05;86.63;102180.09;4071374;29;20076;-75
2021/03/01 04:55:58;;;;;;;26.73;16.30;;;4.50;99.90;;;4.08;85.65;102182.53;4088222;29;20042;-75
2021/03/01 04:58:00;;;;;;;24.65;16.30;;;4.50;99.90;;;4.13;85.76;102193.59;4088340;29;20393;-75
2021/03/01 05:00:03;;;;;;;20.92;14.30;;;4.50;99.90;;;4.24;85.58;102188.63;4087038;29;20036;-75
2021/03/01 05:02:04;;;;;;;25.35;16.02;;;4.50;99.90;;;4.26;85.14;102193.78;4087040;29;20119;-75
2021/03/01 05:04:05;;;;;;;23.95;15.77;;;4.50;99.90;;;4.10;84.84;102178.06;4088091;29;20039;-75
2021/03/01 05:06:07;;;;;;;24.85;16.02;;;4.50;99.90;;;4.15;84.95;102201.34;4088044;29;20447;-75
2021/03/01 05:08:17;;;;;;;27.48;16.05;;;4.50;99.90;;;4.15;84.96;102196.94;4087896;29;20518;-75
2021/03/01 05:10:19;;;;;;;23.85;16.02;;;4.50;99.90;;;4.07;85.14;102188.69;4088021;29;20027;-75
2021/03/01 05:12:20;;;;;;;21.90;15.45;;;4.30;99.90;;;4.16;84.36;102192.56;4087025;29;20027;-75
2021/03/01 05:14:21;;;;;;;21.90;14.90;;;4.50;99.90;;;4.14;84.57;102178.75;4087138;29;20028;-75
2021/03/01 05:16:25;;;;;;;24.60;14.93;;;4.40;99.90;;;4.20;84.36;102189.75;4076102;29;20104;-75
2021/03/01 05:18:29;;;;;;;23.48;14.93;;;4.50;99.90;;;4.05;84.52;102174.00;4088130;29;20023;-75
2021/03/01 05:20:30;;;;;;;26.90;15.48;;;4.60;99.90;;;4.02;85.44;102188.06;4088173;29;20491;-75
2021/03/01 05:22:31;;;;;;;21.08;14.50;;;4.40;99.90;;;3.98;85.44;102188.28;4087784;29;20100;-75
2021/03/01 05:24:32;;;;;;;27.02;17.15;;;4.40;99.90;;;3.95;86.13;102185.84;4088005;29;20031;-75
2021/03/01 05:26:33;;;;;;;24.55;16.88;;;4.30;99.90;;;4.01;86.07;102182.91;4087954;29;20024;-75
2021/03/01 05:28:36;;;;;;;23.92;16.08;;;4.30;99.90;;;3.83;85.74;102175.13;4086669;29;20067;-75
2021/03/01 05:30:37;;;;;;;26.08;16.10;;;4.30;99.90;;;3.96;85.52;102175.34;4086280;29;20539;-75
2021/03/01 05:32:38;;;;;;;23.88;14.98;;;4.30;99.90;;;3.80;85.05;102184.84;4086796;29;20488;-75
2021/03/01 05:34:39;;;;;;;25.05;15.50;;;4.30;99.90;;;3.80;86.13;102174.41;4086525;29;20046;-75
2021/03/01 05:36:42;;;;;;;25.85;15.75;;;4.30;99.90;;;3.66;86.12;102167.31;4087435;29;20031;-75
2021/03/01 05:38:42;;;;;;;20.38;15.65;;;4.20;99.90;;;3.85;85.77;102175.06;4086513;29;20103;-75
2021/03/01 05:40:46;;;;;;;21.10;15.07;;;4.20;99.90;;;3.44;85.10;102127.53;4076166;29;20028;-75
2021/03/01 05:42:50;;;;;;;20.55;15.38;;;4.20;99.90;;;3.82;86.03;102178.63;4087810;29;20028;-75
2021/03/01 05:44:51;;;;;;;;;;;4.20;99.90;;;3.76;86.31;102168.50;4086969;29;20044;-74
2021/03/01 05:46:55;;;;;;;22.65;14.70;;;4.20;99.90;;;3.78;86.40;102165.84;4086298;29;19911;-74
2021/03/01 05:48:56;;;;;;;24.85;16.48;;;4.20;99.90;;;3.82;85.75;102181.25;4087755;29;20047;-75
2021/03/01 05:51:00;;;;;;;23.42;15.60;;;4.20;99.90;;;3.74;86.68;102185.16;4086287;29;20435;-75
2021/03/01 05:53:02;;;;;;;;;;;4.20;99.90;;;3.56;87.25;102170.44;4088237;29;20024;-75
2021/03/01 05:55:05;;;;;;;27.20;16.48;;;4.10;99.90;;;3.62;87.63;102177.94;4086377;29;19917;-75
2021/03/01 05:57:07;;;;;;;22.90;15.57;;;4.10;99.90;;;3.57;87.18;102164.31;4087824;29;20040;-75
2021/03/01 05:59:09;;;;;;;26.55;15.90;;;4.10;99.90;;;3.74;86.40;102146.03;4087699;29;20046;-75
2021/03/01 06:01:11;;;;;;;25.85;15.82;;;4.10;99.90;;;3.87;85.77;102171.44;4087340;29;20028;-75
2021/03/01 06:03:14;;;;;;;23.90;15.95;;;4.20;99.90;;;3.61;86.37;102143.22;4087566;29;20023;-75
2021/03/01 06:05:16;;;;;;;24.33;15.95;;;4.20;99.90;;;3.73;86.68;102146.97;4087370;29;20026;-75
2021/03/01 06:07:17;;;;;;;26.20;16.67;;;4.20;99.90;;;3.83;86.75;102167.28;4087523;29;20079;-75
2021/03/01 06:09:19;;;;;;;25.50;16.42;;;4.30;99.90;;;3.82;86.57;102168.19;4087501;29;20044;-75
2021/03/01 06:11:19;;;;;;;25.15;17.63;;;4.40;99.90;;;3.72;86.77;102153.09;4087479;29;20562;-75
2021/03/01 06:13:20;;;;;;;24.10;16.17;;;4.40;99.90;;;3.90;86.10;102165.22;4087448;29;20032;-75
2021/03/01 06:15:22;;;;;;;25.10;16.00;;;4.40;99.90;;;3.86;87.18;102174.09;4077392;29;20552;-75
2021/03/01 06:17:23;;;;;;;24.33;15.10;;;4.30;99.90;;;3.93;86.55;102175.50;4083893;29;20024;-75
2021/03/01 06:19:48;;;;;;;23.63;15.35;;;4.40;99.90;;;4.02;85.91;102180.25;4087417;29;20024;-75
2021/03/01 06:21:52;;;;;;;19.23;12.40;;;4.40;99.90;;;4.00;85.96;102176.88;4087391;29;20031;-75
2021/03/01 06:23:54;;;;;;;27.05;16.17;;;4.30;99.90;;;3.81;86.69;102171.75;4087175;29;20076;-75
2021/03/01 06:25:55;;;;;;;23.25;15.60;;;4.40;99.90;;;3.78;87.96;102168.44;4087245;29;20032;-75
2021/03/01 06:28:00;;;;;;;27.00;14.80;;;4.30;99.90;;;3.91;86.23;102175.56;4087399;29;20042;-75
2021/03/01 06:30:10;;;;;;;25.05;15.77;;;4.30;99.90;;;3.80;86.09;102170.06;4087331;29;20103;-75
2021/03/01 06:32:11;;;;;;;21.20;14.77;;;4.30;99.90;;;3.84;86.40;102171.59;4087507;29;20031;-75
2021/03/01 06:34:32;;;;;;;23.17;15.65;;;4.30;99.90;;;3.83;86.80;102179.47;4085763;29;20040;-75
2021/03/01 06:36:54;;;;;;;23.90;14.60;;;4.20;99.90;;;3.80;87.52;102192.69;4087211;29;20047;-75
2021/03/01 06:38:54;;;;;;;21.92;15.30;;;4.20;99.90;;;3.69;88.48;102190.63;4087336;29;20381;-75
2021/03/01 06:41:10;;;;;;;24.02;16.08;;;4.10;99.90;;;3.72;88.28;102181.81;4087279;29;20043;-75
2021/03/01 06:43:15;;;;;;;20.70;14.25;;;4.10;99.90;;;3.64;88.06;102194.41;4089950;29;20035;-78
2021/03/01 06:45:17;;;;;;;25.48;15.70;;;4.10;99.90;;;3.70;86.99;102171.41;4089887;29;20511;-77
2021/03/01 06:47:17;;;;;;;23.05;15.70;;;4.10;99.90;;;3.84;85.69;102186.41;4090220;29;20032;-76
2021/03/01 06:49:20;;;;;;;23.80;14.93;;;4.20;99.90;;;3.87;85.41;102194.06;4089643;29;20514;-77
2021/03/01 06:51:22;;;;;;;22.40;15.40;;;4.10;99.90;;;3.84;85.49;102183.78;4086805;29;20034;-76
2021/03/01 06:53:23;;;;;;;22.35;15.80;;;4.10;99.90;;;3.87;85.36;102192.31;4089698;29;20028;-77
2021/03/01 06:55:24;;;;;;;22.30;14.45;;;4.10;99.90;;;3.76;85.47;102194.59;4090146;29;20024;-77
2021/03/01 06:57:27;;;;;;;24.35;14.90;;;4.10;99.90;;;3.66;85.87;102193.41;4090024;29;20031;-76
2021/03/01 06:59:28;;;;;;;22.67;15.40;;;4.10;99.90;;;3.78;86.14;102198.00;4090106;29;20036;-76
2021/03/01 07:01:29;;;;;;;23.30;16.23;;;4.10;99.90;;;3.69;85.91;102189.78;4089595;28;20087;-76
2021/03/01 07:03:31;;;;;;;23.60;15.82;;;4.10;99.90;;;3.81;85.99;102197.00;4088312;29;20103;-76
2021/03/01 07:05:51;;;;;;;25.63;16.17;;;4.10;99.90;;;3.72;85.40;102202.69;4080689;29;20408;-76
2021/03/01 07:07:52;;;;;;;23.65;16.65;;;4.10;99.90;;;3.72;86.28;102200.91;4087549;29;20051;-77
2021/03/01 07:09:56;;;;;;;24.00;16.10;;;4.10;99.90;;;3.63;86.51;102209.19;4089698;29;20028;-76
2021/03/01 07:11:57;;;;;;;24.00;16.00;;;4.10;99.90;;;3.71;86.89;102200.97;4089771;29;20036;-76
2021/03/01 07:14:04;;;;;;;20.90;14.80;;;4.10;99.90;;;3.79;86.78;102199.66;4085748;29;20111;-76
2021/03/01 07:16:05;;;;;;;26.95;17.20;;;4.20;99.90;;;3.65;86.77;102186.47;4084711;29;20028;-76
2021/03/01 07:18:07;;;;;;;24.25;16.25;;;4.20;99.90;;;3.87;85.53;102196.69;4085015;29;20056;-76
2021/03/01 07:20:12;;;;;;;24.63;16.48;;;4.20;99.90;;;3.83;86.80;102195.16;4088992;29;20186;-76
2021/03/01 07:22:15;;;;;;;21.58;14.60;;;4.30;99.90;;;3.86;86.99;102198.44;4087580;29;20031;-77
2021/03/01 07:24:22;;;;;;;24.48;15.10;;;4.30;99.90;;;3.93;86.88;102201.59;4087464;29;20048;-77
2021/03/01 07:26:26;;;;;;;26.85;15.68;;;4.30;99.90;;;3.87;87.36;102196.69;4081680;29;20471;-76
2021/03/01 07:28:32;;;;;;;21.38;15.25;;;4.40;99.90;;;3.82;87.02;102201.31;4072892;29;20050;-78
2021/03/01 07:30:35;;;;;;;22.75;15.18;;;4.40;99.90;;;3.89;87.15;102210.50;4091315;29;20091;-76
2021/03/01 07:32:38;;;;;;;23.02;15.98;;;4.40;99.90;;;3.99;87.34;102210.88;4078831;29;20035;-75
2021/03/01 07:34:40;;;;;;;26.03;15.20;;;4.40;99.90;;;3.73;87.43;102178.28;4087949;29;20157;-75
2021/03/01 07:36:41;;;;;;;25.95;16.70;;;4.50;99.90;;;3.95;87.88;102204.97;4094496;29;20063;-75
2021/03/01 07:38:42;;;;;;;26.48;16.17;;;4.40;99.90;;;4.19;86.82;102215.91;4094263;29;20411;-74
2021/03/01 07:40:43;;;;;;;21.90;14.68;;;4.60;99.90;;;3.96;86.71;102184.94;4095014;29;20019;-74
2021/03/01 07:42:44;;;;;;;26.52;16.85;;;4.60;99.90;;;4.37;85.61;102212.34;4096212;28;20019;-74
2021/03/01 07:44:47;;;;;;;22.05;15.10;;;4.70;99.90;;;4.38;85.33;102212.28;4095160;29;20039;-75
2021/03/01 07:46:49;;;;;;;25.70;15.48;;;4.70;99.90;;;4.39;85.64;102210.53;4094853;29;20429;-74
2021/03/01 07:48:50;;;;;;;22.35;16.02;;;4.80;99.90;;;4.42;85.20;102205.97;4096035;29;20041;-76
2021/03/01 07:50:53;;;;;;;22.75;15.15;;;4.90;99.90;;;4.41;85.75;102199.06;4096422;28;20559;-74
2021/03/01 07:52:54;;;;;;;25.88;15.73;;;4.90;99.90;;;4.25;85.73;102174.66;4095575;28;20716;-74
2021/03/01 07:55:05;;;;;;;23.05;15.50;;;5.00;99.90;;;4.40;85.15;102204.34;4096357;28;20123;-75
2021/03/01 07:57:08;;;;;;;24.20;16.48;;;5.00;99.90;;;4.33;84.73;102196.00;4104631;28;20055;-80
2021/03/01 07:59:12;;;;;;;28.33;17.08;;;5.00;99.90;;;4.44;84.46;102216.34;4104371;28;20102;-80
2021/03/01 08:01:14;;;;;;;23.83;15.18;;;5.00;99.90;;;4.26;83.97;102207.72;4102968;29;20050;-80
2021/03/01 08:03:34;;;;;;;22.40;15.88;;;5.00;99.90;;;4.51;83.91;102215.06;4103283;29;20042;-80
2021/03/01 08:05:34;;;;;;;26.38;17.15;;;5.10;99.90;;;4.44;83.84;102217.19;4104055;28;20034;-80
2021/03/01 08:07:43;;;;;;;23.17;15.25;;;5.20;99.90;;;4.39;83.70;102208.72;4104385;28;20027;-80
2021/03/01 08:09:49;;;;;;;23.40;16.58;;;5.20;99.90;;;4.35;83.63;102204.63;4102852;29;20511;-80
2021/03/01 08:11:51;;;;;;;29.60;19.20;;;5.20;99.90;;;4.48;83.55;102223.94;4103200;29;20027;-80
2021/03/01 08:13:51;;;;;;;23.52;15.30;;;5.20;99.90;;;4.23;83.82;102194.81;4103882;28;20042;-80
2021/03/01 08:16:12;;;;;;;26.52;15.60;;;5.30;99.90;;;4.38;83.74;102214.91;4103400;28;20451;-80
2021/03/01 08:18:14;;;;;;;23.80;15.70;;;5.30;99.90;;;4.42;83.72;102197.31;4103222;29;20032;-81
2021/03/01 08:20:15;;;;;;;24.48;16.00;;;5.30;99.90;;;4.63;84.78;102224.88;4102883;29;20023;-80
2021/03/01 08:22:15;;;;;;;24.15;15.52;;;5.30;99.90;;;4.74;83.47;102221.72;4104242;28;20046;-81
2021/03/01 08:24:51;;;;;;;26.50;15.60;;;5.40;99.90;;;4.79;83.01;102228.38;4102807;29;20027;-80
2021/03/01 08:26:51;;;;;;;22.25;14.75;;;5.50;99.90;;;4.66;83.63;102227.31;4102892;29;20054;-80
2021/03/01 08:28:54;;;;;;;22.77;16.20;;;5.50;99.90;;;4.83;83.44;102218.59;4118468;28;20070;-80
2021/03/01 08:31:16;;;;;;;31.50;16.65;;;5.60;99.90;;;4.72;83.08;102211.31;4102376;29;20163;-80
2021/03/01 08:33:17;;;;;;;24.33;15.30;;;5.70;99.90;;;4.71;83.02;102227.94;4103231;29;20504;-80
2021/03/01 08:35:24;;;;;;;24.13;16.50;;;5.70;99.90;;;4.59;83.78;102231.22;4117985;28;20138;-80